sensor_id;sensor_type;location;lat;lon;timestamp;P1;durP1;ratioP1;P2;durP2;ratioP2
74749;SDS011;63269;53.330;-6.288;2023-12-29T00:01:52;9.00;;;2.35;;
74749;SDS011;63269;53.330;-6.288;2023-12-29T00:04:17;8.10;;;2.55;;
74749;SDS011;63269;53.330;-6.288;2023-12-29T00:06:43;6.43;;;2.45;;
74749;SDS011;63269;53.330;-6.288;2023-12-29T00:09:08;8.60;;;2.45;;
74749;SDS011;63269;53.330;-6.288;2023-12-29T00:11:34;6.50;;;2.30;;
74749;SDS011;63269;53.330;-6.288;2023-12-29T00:13:59;11.25;;;2.72;;
74749;SDS011;63269;53.330;-6.288;2023-12-29T00:16:26;8.32;;;2.88;;
74749;SDS011;63269;53.330;-6.288;2023-12-29T00:18:52;9.27;;;3.10;;
74749;SDS011;63269;53.330;-6.288;2023-12-29T00:21:18;8.27;;;2.97;;
74749;SDS011;63269;53.330;-6.288;2023-12-29T00:23:43;6.88;;;2.42;;
74749;SDS011;63269;53.330;-6.288;2023-12-29T00:26:09;6.00;;;1.98;;
74749;SDS011;63269;53.330;-6.288;2023-12-29T00:28:34;7.60;;;2.10;;
74749;SDS011;63269;53.330;-6.288;2023-12-29T00:31:01;6.88;;;2.38;;
74749;SDS011;63269;53.330;-6.288;2023-12-29T00:33:27;7.57;;;2.50;;
74749;SDS011;63269;53.330;-6.288;2023-12-29T00:35:52;9.25;;;2.58;;
74749;SDS011;63269;53.330;-6.288;2023-12-29T00:38:18;11.73;;;3.20;;
74749;SDS011;63269;53.330;-6.288;2023-12-29T00:40:43;7.30;;;2.58;;
74749;SDS011;63269;53.330;-6.288;2023-12-29T00:43:09;7.38;;;2.08;;
74749;SDS011;63269;53.330;-6.288;2023-12-29T00:45:34;9.07;;;3.10;;
74749;SDS011;63269;53.330;-6.288;2023-12-29T00:48:01;8.52;;;1.95;;
74749;SDS011;63269;53.330;-6.288;2023-12-29T00:50:27;5.57;;;2.10;;
74749;SDS011;63269;53.330;-6.288;2023-12-29T00:52:52;7.20;;;2.08;;
74749;SDS011;63269;53.330;-6.288;2023-12-29T00:55:17;7.50;;;2.20;;
74749;SDS011;63269;53.330;-6.288;2023-12-29T00:57:43;7.03;;;2.28;;
74749;SDS011;63269;53.330;-6.288;2023-12-29T01:00:10;8.02;;;2.80;;
74749;SDS011;63269;53.330;-6.288;2023-12-29T01:02:37;5.78;;;2.28;;
74749;SDS011;63269;53.330;-6.288;2023-12-29T01:05:02;8.18;;;2.30;;
74749;SDS011;63269;53.330;-6.288;2023-12-29T01:07:28;7.20;;;2.03;;
74749;SDS011;63269;53.330;-6.288;2023-12-29T01:09:54;7.90;;;2.17;;
74749;SDS011;63269;53.330;-6.288;2023-12-29T01:12:19;8.32;;;2.22;;
74749;SDS011;63269;53.330;-6.288;2023-12-29T01:14:44;8.95;;;1.88;;
74749;SDS011;63269;53.330;-6.288;2023-12-29T01:17:10;8.10;;;2.13;;
74749;SDS011;63269;53.330;-6.288;2023-12-29T01:19:35;9.40;;;2.13;;
74749;SDS011;63269;53.330;-6.288;2023-12-29T01:22:00;10.45;;;3.05;;
74749;SDS011;63269;53.330;-6.288;2023-12-29T01:24:26;5.22;;;1.73;;
74749;SDS011;63269;53.330;-6.288;2023-12-29T01:26:51;6.65;;;1.98;;
74749;SDS011;63269;53.330;-6.288;2023-12-29T01:29:17;5.35;;;2.00;;
74749;SDS011;63269;53.330;-6.288;2023-12-29T01:31:43;7.80;;;2.05;;
74749;SDS011;63269;53.330;-6.288;2023-12-29T01:34:08;7.43;;;1.67;;
74749;SDS011;63269;53.330;-6.288;2023-12-29T01:36:33;7.22;;;2.15;;
74749;SDS011;63269;53.330;-6.288;2023-12-29T01:38:59;8.73;;;2.08;;
74749;SDS011;63269;53.330;-6.288;2023-12-29T01:41:24;6.93;;;2.70;;
74749;SDS011;63269;53.330;-6.288;2023-12-29T01:46:21;6.07;;;1.95;;
74749;SDS011;63269;53.330;-6.288;2023-12-29T01:48:47;7.97;;;2.42;;
74749;SDS011;63269;53.330;-6.288;2023-12-29T01:51:14;8.32;;;2.40;;
74749;SDS011;63269;53.330;-6.288;2023-12-29T01:53:40;6.20;;;2.45;;
74749;SDS011;63269;53.330;-6.288;2023-12-29T01:56:06;6.88;;;2.13;;
74749;SDS011;63269;53.330;-6.288;2023-12-29T01:58:32;6.57;;;2.25;;
74749;SDS011;63269;53.330;-6.288;2023-12-29T02:00:58;8.13;;;2.20;;
74749;SDS011;63269;53.330;-6.288;2023-12-29T02:03:25;6.25;;;2.15;;
74749;SDS011;63269;53.330;-6.288;2023-12-29T02:05:50;9.55;;;2.22;;
74749;SDS011;63269;53.330;-6.288;2023-12-29T02:08:20;5.90;;;2.43;;
74749;SDS011;63269;53.330;-6.288;2023-12-29T02:10:49;5.38;;;1.70;;
74749;SDS011;63269;53.330;-6.288;2023-12-29T02:13:14;6.13;;;1.70;;
74749;SDS011;63269;53.330;-6.288;2023-12-29T02:15:40;7.80;;;2.05;;
74749;SDS011;63269;53.330;-6.288;2023-12-29T02:18:06;6.47;;;1.92;;
74749;SDS011;63269;53.330;-6.288;2023-12-29T02:20:33;5.78;;;1.73;;
74749;SDS011;63269;53.330;-6.288;2023-12-29T02:22:59;7.53;;;2.08;;
74749;SDS011;63269;53.330;-6.288;2023-12-29T02:25:25;6.60;;;2.00;;
74749;SDS011;63269;53.330;-6.288;2023-12-29T02:27:58;7.22;;;2.20;;
74749;SDS011;63269;53.330;-6.288;2023-12-29T02:30:31;6.13;;;2.10;;
74749;SDS011;63269;53.330;-6.288;2023-12-29T02:33:04;8.27;;;2.42;;
74749;SDS011;63269;53.330;-6.288;2023-12-29T02:35:33;7.00;;;1.83;;
74749;SDS011;63269;53.330;-6.288;2023-12-29T02:38:03;8.00;;;2.75;;
74749;SDS011;63269;53.330;-6.288;2023-12-29T02:40:28;7.60;;;2.55;;
74749;SDS011;63269;53.330;-6.288;2023-12-29T02:42:54;8.25;;;2.05;;
74749;SDS011;63269;53.330;-6.288;2023-12-29T02:45:20;6.90;;;1.90;;
74749;SDS011;63269;53.330;-6.288;2023-12-29T02:47:46;6.45;;;2.25;;
74749;SDS011;63269;53.330;-6.288;2023-12-29T02:50:12;6.53;;;2.08;;
74749;SDS011;63269;53.330;-6.288;2023-12-29T02:52:37;8.02;;;2.15;;
74749;SDS011;63269;53.330;-6.288;2023-12-29T02:55:03;5.70;;;2.05;;
74749;SDS011;63269;53.330;-6.288;2023-12-29T02:57:28;5.68;;;2.10;;
74749;SDS011;63269;53.330;-6.288;2023-12-29T02:59:55;7.30;;;1.90;;
74749;SDS011;63269;53.330;-6.288;2023-12-29T03:02:21;10.18;;;2.17;;
74749;SDS011;63269;53.330;-6.288;2023-12-29T03:04:47;7.07;;;1.92;;
74749;SDS011;63269;53.330;-6.288;2023-12-29T03:07:12;8.50;;;2.60;;
74749;SDS011;63269;53.330;-6.288;2023-12-29T03:09:37;7.80;;;2.08;;
74749;SDS011;63269;53.330;-6.288;2023-12-29T03:12:03;6.53;;;2.67;;
74749;SDS011;63269;53.330;-6.288;2023-12-29T03:14:29;8.15;;;2.17;;
74749;SDS011;63269;53.330;-6.288;2023-12-29T03:16:54;7.50;;;2.20;;
74749;SDS011;63269;53.330;-6.288;2023-12-29T03:19:20;9.40;;;2.25;;
74749;SDS011;63269;53.330;-6.288;2023-12-29T03:21:45;6.88;;;2.22;;
74749;SDS011;63269;53.330;-6.288;2023-12-29T03:24:11;6.13;;;2.10;;
74749;SDS011;63269;53.330;-6.288;2023-12-29T03:26:36;4.65;;;1.75;;
74749;SDS011;63269;53.330;-6.288;2023-12-29T03:29:01;6.47;;;2.03;;
74749;SDS011;63269;53.330;-6.288;2023-12-29T03:31:27;6.65;;;2.20;;
74749;SDS011;63269;53.330;-6.288;2023-12-29T03:33:52;6.97;;;2.00;;
74749;SDS011;63269;53.330;-6.288;2023-12-29T03:36:18;9.35;;;2.85;;
74749;SDS011;63269;53.330;-6.288;2023-12-29T03:38:43;5.40;;;1.80;;
74749;SDS011;63269;53.330;-6.288;2023-12-29T03:41:09;8.57;;;2.05;;
74749;SDS011;63269;53.330;-6.288;2023-12-29T03:43:34;8.20;;;2.47;;
74749;SDS011;63269;53.330;-6.288;2023-12-29T03:45:59;7.03;;;1.85;;
74749;SDS011;63269;53.330;-6.288;2023-12-29T03:48:25;9.35;;;2.78;;
74749;SDS011;63269;53.330;-6.288;2023-12-29T03:50:50;6.07;;;1.90;;
74749;SDS011;63269;53.330;-6.288;2023-12-29T03:53:16;9.63;;;2.72;;
74749;SDS011;63269;53.330;-6.288;2023-12-29T03:55:41;6.90;;;2.40;;
74749;SDS011;63269;53.330;-6.288;2023-12-29T03:58:07;6.93;;;2.65;;
74749;SDS011;63269;53.330;-6.288;2023-12-29T04:00:34;7.50;;;2.38;;
74749;SDS011;63269;53.330;-6.288;2023-12-29T04:03:01;6.50;;;2.28;;
74749;SDS011;63269;53.330;-6.288;2023-12-29T04:05:26;7.65;;;2.50;;
74749;SDS011;63269;53.330;-6.288;2023-12-29T04:07:52;6.10;;;2.03;;
74749;SDS011;63269;53.330;-6.288;2023-12-29T04:10:17;8.63;;;2.60;;
74749;SDS011;63269;53.330;-6.288;2023-12-29T04:12:42;7.28;;;2.50;;
74749;SDS011;63269;53.330;-6.288;2023-12-29T04:15:08;10.60;;;2.72;;
74749;SDS011;63269;53.330;-6.288;2023-12-29T04:17:34;7.55;;;2.28;;
74749;SDS011;63269;53.330;-6.288;2023-12-29T04:19:59;7.53;;;2.28;;
74749;SDS011;63269;53.330;-6.288;2023-12-29T04:22:25;6.30;;;2.38;;
74749;SDS011;63269;53.330;-6.288;2023-12-29T04:24:50;7.18;;;2.03;;
74749;SDS011;63269;53.330;-6.288;2023-12-29T04:27:16;10.77;;;3.08;;
74749;SDS011;63269;53.330;-6.288;2023-12-29T04:29:43;7.43;;;2.60;;
74749;SDS011;63269;53.330;-6.288;2023-12-29T04:32:09;5.78;;;1.90;;
74749;SDS011;63269;53.330;-6.288;2023-12-29T04:34:35;6.32;;;2.83;;
74749;SDS011;63269;53.330;-6.288;2023-12-29T04:37:00;9.50;;;2.20;;
74749;SDS011;63269;53.330;-6.288;2023-12-29T04:39:26;6.00;;;2.38;;
74749;SDS011;63269;53.330;-6.288;2023-12-29T04:41:51;6.30;;;2.70;;
74749;SDS011;63269;53.330;-6.288;2023-12-29T04:44:16;8.02;;;2.10;;
74749;SDS011;63269;53.330;-6.288;2023-12-29T04:46:42;7.57;;;2.33;;
74749;SDS011;63269;53.330;-6.288;2023-12-29T04:49:07;6.85;;;2.10;;
74749;SDS011;63269;53.330;-6.288;2023-12-29T04:51:33;7.18;;;2.15;;
74749;SDS011;63269;53.330;-6.288;2023-12-29T04:53:59;8.70;;;2.42;;
74749;SDS011;63269;53.330;-6.288;2023-12-29T04:56:24;7.93;;;3.00;;
74749;SDS011;63269;53.330;-6.288;2023-12-29T04:58:51;7.65;;;2.42;;
74749;SDS011;63269;53.330;-6.288;2023-12-29T05:01:17;7.30;;;2.40;;
74749;SDS011;63269;53.330;-6.288;2023-12-29T05:03:42;7.07;;;2.28;;
74749;SDS011;63269;53.330;-6.288;2023-12-29T05:06:08;8.65;;;2.42;;
74749;SDS011;63269;53.330;-6.288;2023-12-29T05:08:33;6.80;;;2.28;;
74749;SDS011;63269;53.330;-6.288;2023-12-29T05:10:59;9.07;;;1.92;;
74749;SDS011;63269;53.330;-6.288;2023-12-29T05:13:25;9.30;;;2.80;;
74749;SDS011;63269;53.330;-6.288;2023-12-29T05:15:50;7.60;;;2.50;;
74749;SDS011;63269;53.330;-6.288;2023-12-29T05:18:16;7.30;;;2.30;;
74749;SDS011;63269;53.330;-6.288;2023-12-29T05:20:41;7.97;;;2.00;;
74749;SDS011;63269;53.330;-6.288;2023-12-29T05:23:07;5.70;;;1.73;;
74749;SDS011;63269;53.330;-6.288;2023-12-29T05:25:32;5.85;;;2.28;;
74749;SDS011;63269;53.330;-6.288;2023-12-29T05:27:57;6.55;;;2.28;;
74749;SDS011;63269;53.330;-6.288;2023-12-29T05:30:23;7.60;;;2.13;;
74749;SDS011;63269;53.330;-6.288;2023-12-29T05:32:48;8.13;;;2.35;;
74749;SDS011;63269;53.330;-6.288;2023-12-29T05:35:13;7.40;;;2.80;;
74749;SDS011;63269;53.330;-6.288;2023-12-29T05:37:39;7.38;;;2.28;;
74749;SDS011;63269;53.330;-6.288;2023-12-29T05:40:04;7.55;;;2.53;;
74749;SDS011;63269;53.330;-6.288;2023-12-29T05:42:30;7.70;;;2.13;;
74749;SDS011;63269;53.330;-6.288;2023-12-29T05:44:56;7.43;;;2.35;;
74749;SDS011;63269;53.330;-6.288;2023-12-29T05:47:21;10.05;;;2.92;;
74749;SDS011;63269;53.330;-6.288;2023-12-29T05:49:46;9.32;;;2.20;;
74749;SDS011;63269;53.330;-6.288;2023-12-29T05:52:12;7.10;;;2.33;;
74749;SDS011;63269;53.330;-6.288;2023-12-29T05:54:37;8.00;;;2.13;;
74749;SDS011;63269;53.330;-6.288;2023-12-29T05:57:03;7.95;;;2.25;;
74749;SDS011;63269;53.330;-6.288;2023-12-29T05:59:28;7.88;;;2.15;;
74749;SDS011;63269;53.330;-6.288;2023-12-29T06:01:54;8.75;;;2.30;;
74749;SDS011;63269;53.330;-6.288;2023-12-29T06:04:19;9.93;;;1.98;;
74749;SDS011;63269;53.330;-6.288;2023-12-29T06:06:45;6.90;;;1.95;;
74749;SDS011;63269;53.330;-6.288;2023-12-29T06:09:11;7.28;;;2.72;;
74749;SDS011;63269;53.330;-6.288;2023-12-29T06:11:36;5.20;;;2.08;;
74749;SDS011;63269;53.330;-6.288;2023-12-29T06:14:02;7.95;;;2.38;;
74749;SDS011;63269;53.330;-6.288;2023-12-29T06:16:28;8.82;;;2.50;;
74749;SDS011;63269;53.330;-6.288;2023-12-29T06:18:55;7.35;;;2.13;;
74749;SDS011;63269;53.330;-6.288;2023-12-29T06:21:20;8.57;;;2.05;;
74749;SDS011;63269;53.330;-6.288;2023-12-29T06:23:46;7.00;;;2.10;;
74749;SDS011;63269;53.330;-6.288;2023-12-29T06:26:17;8.98;;;2.33;;
74749;SDS011;63269;53.330;-6.288;2023-12-29T06:28:44;9.93;;;2.25;;
74749;SDS011;63269;53.330;-6.288;2023-12-29T06:31:10;7.32;;;2.15;;
74749;SDS011;63269;53.330;-6.288;2023-12-29T06:33:36;7.07;;;2.08;;
74749;SDS011;63269;53.330;-6.288;2023-12-29T06:36:01;5.18;;;1.80;;
74749;SDS011;63269;53.330;-6.288;2023-12-29T06:38:27;7.57;;;2.13;;
74749;SDS011;63269;53.330;-6.288;2023-12-29T06:40:52;4.90;;;1.90;;
74749;SDS011;63269;53.330;-6.288;2023-12-29T06:43:18;5.90;;;1.92;;
74749;SDS011;63269;53.330;-6.288;2023-12-29T06:45:43;8.10;;;2.30;;
74749;SDS011;63269;53.330;-6.288;2023-12-29T06:48:09;8.77;;;2.60;;
74749;SDS011;63269;53.330;-6.288;2023-12-29T06:50:35;6.70;;;2.22;;
74749;SDS011;63269;53.330;-6.288;2023-12-29T06:53:02;6.47;;;2.25;;
74749;SDS011;63269;53.330;-6.288;2023-12-29T06:55:28;6.60;;;1.90;;
74749;SDS011;63269;53.330;-6.288;2023-12-29T06:57:53;6.45;;;1.88;;
74749;SDS011;63269;53.330;-6.288;2023-12-29T07:00:18;6.18;;;2.15;;
74749;SDS011;63269;53.330;-6.288;2023-12-29T07:02:44;8.25;;;1.58;;
74749;SDS011;63269;53.330;-6.288;2023-12-29T07:05:09;7.50;;;2.25;;
74749;SDS011;63269;53.330;-6.288;2023-12-29T07:07:35;6.15;;;2.55;;
74749;SDS011;63269;53.330;-6.288;2023-12-29T07:10:01;11.57;;;3.25;;
74749;SDS011;63269;53.330;-6.288;2023-12-29T07:12:27;8.68;;;2.00;;
74749;SDS011;63269;53.330;-6.288;2023-12-29T07:14:53;5.82;;;1.65;;
74749;SDS011;63269;53.330;-6.288;2023-12-29T07:17:18;4.05;;;1.40;;
74749;SDS011;63269;53.330;-6.288;2023-12-29T07:19:44;5.82;;;1.75;;
74749;SDS011;63269;53.330;-6.288;2023-12-29T07:22:09;5.75;;;2.20;;
74749;SDS011;63269;53.330;-6.288;2023-12-29T07:24:35;6.60;;;1.73;;
74749;SDS011;63269;53.330;-6.288;2023-12-29T07:27:01;6.88;;;2.03;;
74749;SDS011;63269;53.330;-6.288;2023-12-29T07:29:26;5.93;;;1.85;;
74749;SDS011;63269;53.330;-6.288;2023-12-29T07:31:52;7.30;;;1.90;;
74749;SDS011;63269;53.330;-6.288;2023-12-29T07:34:18;6.32;;;1.75;;
74749;SDS011;63269;53.330;-6.288;2023-12-29T07:36:44;5.72;;;1.58;;
74749;SDS011;63269;53.330;-6.288;2023-12-29T07:39:09;5.60;;;2.03;;
74749;SDS011;63269;53.330;-6.288;2023-12-29T07:41:39;6.45;;;1.83;;
74749;SDS011;63269;53.330;-6.288;2023-12-29T07:44:06;5.43;;;1.30;;
74749;SDS011;63269;53.330;-6.288;2023-12-29T07:46:31;5.00;;;1.38;;
74749;SDS011;63269;53.330;-6.288;2023-12-29T07:48:57;4.75;;;1.45;;
74749;SDS011;63269;53.330;-6.288;2023-12-29T07:51:22;4.88;;;1.40;;
74749;SDS011;63269;53.330;-6.288;2023-12-29T07:53:47;5.03;;;1.45;;
74749;SDS011;63269;53.330;-6.288;2023-12-29T07:56:13;3.88;;;1.50;;
74749;SDS011;63269;53.330;-6.288;2023-12-29T07:58:39;5.13;;;1.48;;
74749;SDS011;63269;53.330;-6.288;2023-12-29T08:01:05;5.32;;;1.60;;
74749;SDS011;63269;53.330;-6.288;2023-12-29T08:03:30;3.00;;;1.20;;
74749;SDS011;63269;53.330;-6.288;2023-12-29T08:05:55;6.35;;;1.67;;
74749;SDS011;63269;53.330;-6.288;2023-12-29T08:08:21;4.32;;;1.67;;
74749;SDS011;63269;53.330;-6.288;2023-12-29T08:10:46;4.50;;;1.30;;
74749;SDS011;63269;53.330;-6.288;2023-12-29T08:13:11;6.22;;;1.30;;
74749;SDS011;63269;53.330;-6.288;2023-12-29T08:15:37;5.10;;;1.70;;
74749;SDS011;63269;53.330;-6.288;2023-12-29T08:18:03;6.30;;;1.55;;
74749;SDS011;63269;53.330;-6.288;2023-12-29T08:20:29;4.50;;;1.80;;
74749;SDS011;63269;53.330;-6.288;2023-12-29T08:22:55;4.50;;;1.40;;
74749;SDS011;63269;53.330;-6.288;2023-12-29T08:25:21;5.25;;;1.85;;
74749;SDS011;63269;53.330;-6.288;2023-12-29T08:27:47;5.47;;;2.13;;
74749;SDS011;63269;53.330;-6.288;2023-12-29T08:30:13;4.10;;;1.65;;
74749;SDS011;63269;53.330;-6.288;2023-12-29T08:32:39;4.30;;;1.80;;
74749;SDS011;63269;53.330;-6.288;2023-12-29T08:35:04;4.60;;;1.40;;
74749;SDS011;63269;53.330;-6.288;2023-12-29T08:37:30;7.07;;;2.15;;
74749;SDS011;63269;53.330;-6.288;2023-12-29T08:39:55;6.13;;;1.50;;
74749;SDS011;63269;53.330;-6.288;2023-12-29T08:42:21;3.95;;;1.52;;
74749;SDS011;63269;53.330;-6.288;2023-12-29T08:44:46;5.82;;;1.80;;
74749;SDS011;63269;53.330;-6.288;2023-12-29T08:47:12;5.57;;;1.33;;
74749;SDS011;63269;53.330;-6.288;2023-12-29T08:49:38;5.25;;;1.30;;
74749;SDS011;63269;53.330;-6.288;2023-12-29T08:52:05;4.43;;;1.50;;
74749;SDS011;63269;53.330;-6.288;2023-12-29T08:54:31;5.75;;;1.63;;
74749;SDS011;63269;53.330;-6.288;2023-12-29T08:56:56;6.10;;;1.40;;
74749;SDS011;63269;53.330;-6.288;2023-12-29T08:59:22;5.05;;;1.65;;
74749;SDS011;63269;53.330;-6.288;2023-12-29T09:01:48;4.25;;;1.50;;
74749;SDS011;63269;53.330;-6.288;2023-12-29T09:04:13;4.70;;;1.50;;
74749;SDS011;63269;53.330;-6.288;2023-12-29T09:06:39;3.83;;;1.23;;
74749;SDS011;63269;53.330;-6.288;2023-12-29T09:09:04;6.30;;;1.85;;
74749;SDS011;63269;53.330;-6.288;2023-12-29T09:11:30;6.03;;;1.52;;
74749;SDS011;63269;53.330;-6.288;2023-12-29T09:13:55;3.65;;;1.20;;
74749;SDS011;63269;53.330;-6.288;2023-12-29T09:16:21;5.25;;;1.60;;
74749;SDS011;63269;53.330;-6.288;2023-12-29T09:18:46;7.18;;;1.92;;
74749;SDS011;63269;53.330;-6.288;2023-12-29T09:21:12;6.38;;;1.70;;
74749;SDS011;63269;53.330;-6.288;2023-12-29T09:23:37;5.95;;;1.67;;
74749;SDS011;63269;53.330;-6.288;2023-12-29T09:26:03;6.57;;;1.63;;
74749;SDS011;63269;53.330;-6.288;2023-12-29T09:28:31;5.45;;;1.67;;
74749;SDS011;63269;53.330;-6.288;2023-12-29T09:30:57;8.48;;;1.70;;
74749;SDS011;63269;53.330;-6.288;2023-12-29T09:33:23;6.75;;;1.38;;
74749;SDS011;63269;53.330;-6.288;2023-12-29T09:35:49;3.67;;;1.30;;
74749;SDS011;63269;53.330;-6.288;2023-12-29T09:38:15;4.05;;;1.40;;
74749;SDS011;63269;53.330;-6.288;2023-12-29T09:40:41;5.18;;;1.77;;
74749;SDS011;63269;53.330;-6.288;2023-12-29T09:43:06;6.35;;;1.45;;
74749;SDS011;63269;53.330;-6.288;2023-12-29T09:45:34;5.05;;;1.70;;
74749;SDS011;63269;53.330;-6.288;2023-12-29T09:48:08;6.18;;;1.65;;
74749;SDS011;63269;53.330;-6.288;2023-12-29T09:50:37;5.68;;;1.52;;
74749;SDS011;63269;53.330;-6.288;2023-12-29T09:53:02;4.22;;;1.55;;
74749;SDS011;63269;53.330;-6.288;2023-12-29T09:55:29;4.45;;;1.38;;
74749;SDS011;63269;53.330;-6.288;2023-12-29T09:57:57;6.30;;;1.38;;
74749;SDS011;63269;53.330;-6.288;2023-12-29T10:00:25;6.22;;;2.08;;
74749;SDS011;63269;53.330;-6.288;2023-12-29T10:02:51;5.10;;;1.65;;
74749;SDS011;63269;53.330;-6.288;2023-12-29T10:05:19;5.00;;;1.38;;
74749;SDS011;63269;53.330;-6.288;2023-12-29T10:07:45;4.30;;;1.40;;
74749;SDS011;63269;53.330;-6.288;2023-12-29T10:10:14;4.97;;;1.60;;
74749;SDS011;63269;53.330;-6.288;2023-12-29T10:12:41;5.80;;;1.52;;
74749;SDS011;63269;53.330;-6.288;2023-12-29T10:15:17;4.78;;;1.48;;
74749;SDS011;63269;53.330;-6.288;2023-12-29T10:18:22;5.80;;;1.77;;
74749;SDS011;63269;53.330;-6.288;2023-12-29T10:23:20;6.43;;;1.33;;
74749;SDS011;63269;53.330;-6.288;2023-12-29T10:25:51;4.97;;;1.52;;
74749;SDS011;63269;53.330;-6.288;2023-12-29T10:28:17;4.33;;;1.30;;
74749;SDS011;63269;53.330;-6.288;2023-12-29T10:30:43;4.43;;;1.38;;
74749;SDS011;63269;53.330;-6.288;2023-12-29T10:33:09;5.13;;;1.48;;
74749;SDS011;63269;53.330;-6.288;2023-12-29T10:35:35;3.78;;;1.77;;
74749;SDS011;63269;53.330;-6.288;2023-12-29T10:38:09;4.90;;;1.90;;
74749;SDS011;63269;53.330;-6.288;2023-12-29T10:40:35;6.28;;;1.85;;
74749;SDS011;63269;53.330;-6.288;2023-12-29T10:43:01;6.70;;;1.52;;
74749;SDS011;63269;53.330;-6.288;2023-12-29T10:45:31;4.55;;;1.27;;
74749;SDS011;63269;53.330;-6.288;2023-12-29T10:47:59;4.97;;;1.50;;
74749;SDS011;63269;53.330;-6.288;2023-12-29T10:50:25;7.53;;;1.75;;
74749;SDS011;63269;53.330;-6.288;2023-12-29T10:52:52;2.47;;;0.93;;
74749;SDS011;63269;53.330;-6.288;2023-12-29T10:55:35;3.33;;;1.05;;
74749;SDS011;63269;53.330;-6.288;2023-12-29T10:58:00;3.67;;;1.20;;
74749;SDS011;63269;53.330;-6.288;2023-12-29T11:00:29;5.55;;;1.40;;
74749;SDS011;63269;53.330;-6.288;2023-12-29T11:02:55;6.07;;;1.40;;
74749;SDS011;63269;53.330;-6.288;2023-12-29T11:05:24;2.80;;;1.30;;
74749;SDS011;63269;53.330;-6.288;2023-12-29T11:07:50;3.60;;;1.48;;
74749;SDS011;63269;53.330;-6.288;2023-12-29T11:10:19;4.75;;;1.27;;
74749;SDS011;63269;53.330;-6.288;2023-12-29T11:12:45;4.03;;;1.05;;
74749;SDS011;63269;53.330;-6.288;2023-12-29T11:15:13;3.63;;;1.05;;
74749;SDS011;63269;53.330;-6.288;2023-12-29T11:17:39;2.70;;;0.77;;
74749;SDS011;63269;53.330;-6.288;2023-12-29T11:20:14;2.15;;;1.00;;
74749;SDS011;63269;53.330;-6.288;2023-12-29T11:22:41;2.67;;;1.02;;
74749;SDS011;63269;53.330;-6.288;2023-12-29T11:25:07;3.80;;;0.88;;
74749;SDS011;63269;53.330;-6.288;2023-12-29T11:27:33;2.65;;;0.70;;
74749;SDS011;63269;53.330;-6.288;2023-12-29T11:30:00;1.92;;;0.57;;
74749;SDS011;63269;53.330;-6.288;2023-12-29T11:32:39;2.65;;;0.80;;
74749;SDS011;63269;53.330;-6.288;2023-12-29T11:35:28;2.03;;;0.65;;
74749;SDS011;63269;53.330;-6.288;2023-12-29T11:41:05;3.30;;;0.98;;
74749;SDS011;63269;53.330;-6.288;2023-12-29T11:43:16;1.55;;;0.50;;
74749;SDS011;63269;53.330;-6.288;2023-12-29T11:45:42;2.35;;;0.85;;
74749;SDS011;63269;53.330;-6.288;2023-12-29T11:48:08;2.00;;;0.73;;
74749;SDS011;63269;53.330;-6.288;2023-12-29T11:50:35;1.95;;;0.55;;
74749;SDS011;63269;53.330;-6.288;2023-12-29T11:53:08;3.90;;;0.73;;
74749;SDS011;63269;53.330;-6.288;2023-12-29T11:55:37;2.17;;;0.70;;
74749;SDS011;63269;53.330;-6.288;2023-12-29T11:58:04;1.67;;;0.57;;
74749;SDS011;63269;53.330;-6.288;2023-12-29T12:00:47;2.97;;;0.75;;
74749;SDS011;63269;53.330;-6.288;2023-12-29T12:03:26;2.05;;;0.70;;
74749;SDS011;63269;53.330;-6.288;2023-12-29T12:05:53;2.33;;;0.50;;
74749;SDS011;63269;53.330;-6.288;2023-12-29T12:08:26;2.67;;;0.98;;
74749;SDS011;63269;53.330;-6.288;2023-12-29T12:10:53;1.90;;;0.77;;
74749;SDS011;63269;53.330;-6.288;2023-12-29T12:14:05;4.88;;;0.68;;
74749;SDS011;63269;53.330;-6.288;2023-12-29T12:16:56;2.38;;;0.70;;
74749;SDS011;63269;53.330;-6.288;2023-12-29T12:19:13;2.53;;;0.70;;
74749;SDS011;63269;53.330;-6.288;2023-12-29T12:21:39;1.25;;;0.68;;
74749;SDS011;63269;53.330;-6.288;2023-12-29T12:24:05;1.17;;;0.50;;
74749;SDS011;63269;53.330;-6.288;2023-12-29T12:26:31;1.83;;;0.73;;
74749;SDS011;63269;53.330;-6.288;2023-12-29T12:28:57;2.20;;;0.40;;
74749;SDS011;63269;53.330;-6.288;2023-12-29T12:31:23;2.13;;;0.50;;
74749;SDS011;63269;53.330;-6.288;2023-12-29T12:33:58;1.38;;;0.55;;
74749;SDS011;63269;53.330;-6.288;2023-12-29T12:36:33;12.82;;;4.63;;
74749;SDS011;63269;53.330;-6.288;2023-12-29T12:39:14;16.30;;;6.32;;
74749;SDS011;63269;53.330;-6.288;2023-12-29T12:41:40;15.63;;;5.38;;
74749;SDS011;63269;53.330;-6.288;2023-12-29T12:46:49;16.75;;;5.93;;
74749;SDS011;63269;53.330;-6.288;2023-12-29T12:49:19;15.80;;;5.75;;
74749;SDS011;63269;53.330;-6.288;2023-12-29T12:51:46;19.90;;;7.35;;
74749;SDS011;63269;53.330;-6.288;2023-12-29T12:54:11;11.43;;;5.18;;
74749;SDS011;63269;53.330;-6.288;2023-12-29T12:56:40;13.02;;;4.55;;
74749;SDS011;63269;53.330;-6.288;2023-12-29T12:59:07;13.57;;;4.38;;
74749;SDS011;63269;53.330;-6.288;2023-12-29T13:01:36;10.73;;;4.85;;
74749;SDS011;63269;53.330;-6.288;2023-12-29T13:04:03;11.93;;;3.97;;
74749;SDS011;63269;53.330;-6.288;2023-12-29T13:06:30;13.18;;;4.57;;
74749;SDS011;63269;53.330;-6.288;2023-12-29T13:08:57;11.75;;;4.35;;
74749;SDS011;63269;53.330;-6.288;2023-12-29T13:11:23;9.23;;;4.15;;
74749;SDS011;63269;53.330;-6.288;2023-12-29T13:13:50;10.15;;;3.53;;
74749;SDS011;63269;53.330;-6.288;2023-12-29T13:16:37;10.70;;;3.60;;
74749;SDS011;63269;53.330;-6.288;2023-12-29T13:21:51;12.70;;;4.25;;
74749;SDS011;63269;53.330;-6.288;2023-12-29T13:24:21;10.13;;;3.38;;
74749;SDS011;63269;53.330;-6.288;2023-12-29T13:26:47;13.00;;;3.83;;
74749;SDS011;63269;53.330;-6.288;2023-12-29T13:31:47;26.50;;;4.72;;
74749;SDS011;63269;53.330;-6.288;2023-12-29T13:34:18;15.68;;;3.92;;
74749;SDS011;63269;53.330;-6.288;2023-12-29T13:37:02;13.27;;;3.58;;
74749;SDS011;63269;53.330;-6.288;2023-12-29T13:39:56;12.23;;;3.15;;
74749;SDS011;63269;53.330;-6.288;2023-12-29T13:42:28;8.55;;;2.60;;
74749;SDS011;63269;53.330;-6.288;2023-12-29T13:44:56;11.25;;;3.60;;
74749;SDS011;63269;53.330;-6.288;2023-12-29T13:47:24;7.20;;;2.55;;
74749;SDS011;63269;53.330;-6.288;2023-12-29T13:49:50;6.47;;;2.88;;
74749;SDS011;63269;53.330;-6.288;2023-12-29T13:52:16;11.57;;;2.47;;
74749;SDS011;63269;53.330;-6.288;2023-12-29T13:54:43;7.30;;;2.92;;
74749;SDS011;63269;53.330;-6.288;2023-12-29T13:57:08;6.65;;;2.22;;
74749;SDS011;63269;53.330;-6.288;2023-12-29T13:59:34;9.45;;;2.40;;
74749;SDS011;63269;53.330;-6.288;2023-12-29T14:02:03;5.82;;;1.67;;
74749;SDS011;63269;53.330;-6.288;2023-12-29T14:04:43;8.02;;;2.15;;
74749;SDS011;63269;53.330;-6.288;2023-12-29T14:07:10;4.40;;;2.10;;
74749;SDS011;63269;53.330;-6.288;2023-12-29T14:09:36;5.78;;;2.47;;
74749;SDS011;63269;53.330;-6.288;2023-12-29T14:12:01;6.43;;;2.50;;
74749;SDS011;63269;53.330;-6.288;2023-12-29T14:14:27;4.82;;;1.65;;
74749;SDS011;63269;53.330;-6.288;2023-12-29T14:16:53;4.32;;;1.92;;
74749;SDS011;63269;53.330;-6.288;2023-12-29T14:19:19;5.47;;;2.03;;
74749;SDS011;63269;53.330;-6.288;2023-12-29T14:21:45;7.63;;;1.85;;
74749;SDS011;63269;53.330;-6.288;2023-12-29T14:24:14;7.75;;;1.65;;
74749;SDS011;63269;53.330;-6.288;2023-12-29T14:27:01;6.50;;;1.80;;
74749;SDS011;63269;53.330;-6.288;2023-12-29T14:29:27;4.93;;;1.70;;
74749;SDS011;63269;53.330;-6.288;2023-12-29T14:31:53;3.60;;;1.42;;
74749;SDS011;63269;53.330;-6.288;2023-12-29T14:34:21;6.38;;;1.85;;
74749;SDS011;63269;53.330;-6.288;2023-12-29T14:36:47;5.82;;;2.03;;
74749;SDS011;63269;53.330;-6.288;2023-12-29T14:39:12;6.57;;;2.45;;
74749;SDS011;63269;53.330;-6.288;2023-12-29T14:41:38;4.43;;;1.52;;
74749;SDS011;63269;53.330;-6.288;2023-12-29T14:44:04;3.05;;;1.73;;
74749;SDS011;63269;53.330;-6.288;2023-12-29T14:46:29;3.90;;;1.17;;
74749;SDS011;63269;53.330;-6.288;2023-12-29T14:48:56;3.47;;;1.50;;